Atlantic - Newfoundland: Past 24 Hour Conditions

 

Sagona Island

10:30 AM NDT 24 April 2014
This table is a summary of hourly weather conditions for the past 24 hours.
Date / Time
(NDT)
Wind(knots) Conditions Visibility(km) Pressure(kPa) Air tempC) Relative humidity(%) Dew pointC)
24 April 2014
10:30 NE 29 gust 40 N/A N/A 100.3 2 67 -3
9:30 NE 30 gust 41 N/A N/A 100.3 2 70 -3
8:30 NE 26 gust 40 N/A N/A 100.3 2 73 -3
7:30 NE 31 gust 40 N/A N/A 100.3 1 75 -3
6:30 NE 23 gust 33 N/A N/A 100.3 1 77 -3
5:30 NE 23 gust 34 N/A N/A 100.3 1 74 -3
4:30 NE 26 gust 36 N/A N/A 100.2 1 73 -3
3:30 NE 21 gust 30 N/A N/A 100.3 1 79 -3
2:30 NE 25 gust 31 N/A N/A 100.3 1 73 -3
1:30 NE 26 gust 35 N/A N/A 100.3 2 73 -3
0:30 NE 29 gust 36 N/A N/A 100.4 2 75 -3
23 April 2014
23:30 NE 23 gust 31 N/A N/A 100.4 1 82 -1
22:30 NE 23 gust 30 N/A N/A 100.4 2 81 -1
21:30 NE 22 gust 28 N/A N/A 100.4 2 83 0
20:30 NE 18 gust 23 N/A N/A 100.5 4 78 0
19:30 ENE 24 N/A N/A 100.4 4 79 1
18:30 ENE 19 N/A N/A 100.4 5 78 2
17:30 ENE 23 N/A N/A 100.4 6 76 2
16:30 ENE 27 N/A N/A 100.4 6 74 2
15:30 ENE 23 N/A N/A 100.5 6 73 2
14:30 ENE 22 N/A N/A 100.6 7 73 2
13:30 ENE 15 N/A N/A 100.6 7 73 2
12:30 ENE 18 N/A N/A 100.7 6 78 2
11:30 ENE 16 N/A N/A 100.8 5 83 2
10:30 NE 19 N/A N/A 100.8 4 85 1
 
Map of Atlantic - Newfoundland marine weather areas Southwestern Grand Banks - 44138 Banquereau - 44139 Tail of the Bank - 44140 Nickerson Bank - 44251 Northeast Burgeo Bank - 44255 Blanc-Sablon Airport Cap Whittle Chevery Natashquan Airport Heath Point Miscou Island Grand Étang Ingonish Beach North Mountain St.Paul Island J.A. Douglas McCurdy Sydney Airport Charlottetown Airport East Point North Cape Argentia Bonavista Burgeo Cape Race Corner Brook Daniel's Harbour Englee Ferolle Point La Scie Port aux Basques Rocky Harbour Sagona Island St. Anthony Airport St. John's Int'l Airport St. Lawrence Stephenville Airport Twillingate Winterland Wreckhouse Cartwright Airport Mary's Harbour Grates Cove Pool's Island Marticot Island Long Pond Îles de la Madeleine Airport
Legend: buoyBuoy land stationLand Station